sensor_id;sensor_type;location;lat;lon;timestamp;temperature;humidity
55213;DHT22;41083;52.932;6.674;2023-03-01T00:00:54;0.40;99.90
55213;DHT22;41083;52.932;6.674;2023-03-01T00:03:25;0.40;99.90
55213;DHT22;41083;52.932;6.674;2023-03-01T00:05:51;0.40;99.90
55213;DHT22;41083;52.932;6.674;2023-03-01T00:08:16;0.40;99.90
55213;DHT22;41083;52.932;6.674;2023-03-01T00:10:42;0.30;99.90
55213;DHT22;41083;52.932;6.674;2023-03-01T00:13:08;0.30;99.90
55213;DHT22;41083;52.932;6.674;2023-03-01T00:15:38;0.30;99.90
55213;DHT22;41083;52.932;6.674;2023-03-01T00:18:04;0.30;99.90
55213;DHT22;41083;52.932;6.674;2023-03-01T00:20:29;0.30;99.90
55213;DHT22;41083;52.932;6.674;2023-03-01T00:22:55;0.30;99.90
55213;DHT22;41083;52.932;6.674;2023-03-01T00:25:21;0.30;99.90
55213;DHT22;41083;52.932;6.674;2023-03-01T00:27:46;0.30;99.90
55213;DHT22;41083;52.932;6.674;2023-03-01T00:30:13;0.30;99.90
55213;DHT22;41083;52.932;6.674;2023-03-01T00:32:38;0.40;99.90
55213;DHT22;41083;52.932;6.674;2023-03-01T00:35:04;0.40;99.90
55213;DHT22;41083;52.932;6.674;2023-03-01T00:37:31;0.40;99.90
55213;DHT22;41083;52.932;6.674;2023-03-01T00:39:56;0.40;99.90
55213;DHT22;41083;52.932;6.674;2023-03-01T00:42:22;0.40;99.90
55213;DHT22;41083;52.932;6.674;2023-03-01T00:44:48;0.30;99.90
55213;DHT22;41083;52.932;6.674;2023-03-01T00:47:14;0.30;99.90
55213;DHT22;41083;52.932;6.674;2023-03-01T00:49:39;0.30;99.90
55213;DHT22;41083;52.932;6.674;2023-03-01T00:52:05;0.30;99.90
55213;DHT22;41083;52.932;6.674;2023-03-01T00:54:31;0.20;99.90
55213;DHT22;41083;52.932;6.674;2023-03-01T00:56:57;0.20;99.90
55213;DHT22;41083;52.932;6.674;2023-03-01T00:59:22;0.20;99.90
55213;DHT22;41083;52.932;6.674;2023-03-01T01:01:48;0.20;99.90
55213;DHT22;41083;52.932;6.674;2023-03-01T01:04:14;0.20;99.90
55213;DHT22;41083;52.932;6.674;2023-03-01T01:06:42;0.20;99.90
55213;DHT22;41083;52.932;6.674;2023-03-01T01:09:18;0.20;99.90
55213;DHT22;41083;52.932;6.674;2023-03-01T01:11:50;0.20;99.90
55213;DHT22;41083;52.932;6.674;2023-03-01T01:14:16;0.20;99.90
55213;DHT22;41083;52.932;6.674;2023-03-01T01:16:42;0.20;99.90
55213;DHT22;41083;52.932;6.674;2023-03-01T01:19:10;0.20;99.90
55213;DHT22;41083;52.932;6.674;2023-03-01T01:21:36;0.10;99.90
55213;DHT22;41083;52.932;6.674;2023-03-01T01:24:03;0.10;99.90
55213;DHT22;41083;52.932;6.674;2023-03-01T01:26:31;0.10;99.90
55213;DHT22;41083;52.932;6.674;2023-03-01T01:28:58;0.10;99.90
55213;DHT22;41083;52.932;6.674;2023-03-01T01:31:24;0.00;99.90
55213;DHT22;41083;52.932;6.674;2023-03-01T01:33:51;0.00;99.90
55213;DHT22;41083;52.932;6.674;2023-03-01T01:36:17;-0.10;99.90
55213;DHT22;41083;52.932;6.674;2023-03-01T01:38:42;-0.10;99.90
55213;DHT22;41083;52.932;6.674;2023-03-01T01:41:09;-0.10;99.90
55213;DHT22;41083;52.932;6.674;2023-03-01T01:49:26;-0.20;99.90
55213;DHT22;41083;52.932;6.674;2023-03-01T01:52:07;-0.30;99.90
55213;DHT22;41083;52.932;6.674;2023-03-01T01:54:57;-0.30;99.90
55213;DHT22;41083;52.932;6.674;2023-03-01T01:57:30;-0.30;99.90
55213;DHT22;41083;52.932;6.674;2023-03-01T02:00:09;-0.30;99.90
55213;DHT22;41083;52.932;6.674;2023-03-01T02:02:36;-0.30;99.90
55213;DHT22;41083;52.932;6.674;2023-03-01T02:05:09;-0.20;99.90
55213;DHT22;41083;52.932;6.674;2023-03-01T02:07:39;-0.30;99.90
55213;DHT22;41083;52.932;6.674;2023-03-01T02:10:06;-0.30;99.90
55213;DHT22;41083;52.932;6.674;2023-03-01T02:12:32;-0.40;99.90
55213;DHT22;41083;52.932;6.674;2023-03-01T02:14:58;-0.40;99.90
55213;DHT22;41083;52.932;6.674;2023-03-01T02:17:23;-0.50;99.90
55213;DHT22;41083;52.932;6.674;2023-03-01T02:22:45;-0.50;99.90
55213;DHT22;41083;52.932;6.674;2023-03-01T02:28:25;-0.60;99.90
55213;DHT22;41083;52.932;6.674;2023-03-01T02:30:51;-0.60;99.90
55213;DHT22;41083;52.932;6.674;2023-03-01T02:33:38;-0.60;99.90
55213;DHT22;41083;52.932;6.674;2023-03-01T02:36:07;-0.70;99.90
55213;DHT22;41083;52.932;6.674;2023-03-01T02:38:34;-0.70;99.90
55213;DHT22;41083;52.932;6.674;2023-03-01T02:41:00;-0.70;99.90
55213;DHT22;41083;52.932;6.674;2023-03-01T02:43:31;-0.70;99.90
55213;DHT22;41083;52.932;6.674;2023-03-01T02:46:02;-0.70;99.90
55213;DHT22;41083;52.932;6.674;2023-03-01T02:48:48;-0.70;99.90
55213;DHT22;41083;52.932;6.674;2023-03-01T02:54:30;-0.60;99.90
55213;DHT22;41083;52.932;6.674;2023-03-01T02:56:57;-0.70;99.90
55213;DHT22;41083;52.932;6.674;2023-03-01T02:59:27;-0.70;99.90
55213;DHT22;41083;52.932;6.674;2023-03-01T03:01:54;-0.70;99.90
55213;DHT22;41083;52.932;6.674;2023-03-01T03:04:20;-0.70;99.90
55213;DHT22;41083;52.932;6.674;2023-03-01T03:06:47;-0.70;99.90
55213;DHT22;41083;52.932;6.674;2023-03-01T03:09:14;-0.70;99.90
55213;DHT22;41083;52.932;6.674;2023-03-01T03:11:40;-0.70;99.90
55213;DHT22;41083;52.932;6.674;2023-03-01T03:14:10;-0.70;99.90
55213;DHT22;41083;52.932;6.674;2023-03-01T03:16:47;-0.70;99.90
55213;DHT22;41083;52.932;6.674;2023-03-01T03:19:13;-0.70;99.90
55213;DHT22;41083;52.932;6.674;2023-03-01T03:21:39;-0.70;99.90
55213;DHT22;41083;52.932;6.674;2023-03-01T03:24:05;-0.70;99.90
55213;DHT22;41083;52.932;6.674;2023-03-01T03:26:31;-0.70;99.90
55213;DHT22;41083;52.932;6.674;2023-03-01T03:28:57;-0.80;99.90
55213;DHT22;41083;52.932;6.674;2023-03-01T03:31:23;-0.80;99.90
55213;DHT22;41083;52.932;6.674;2023-03-01T03:33:49;-0.90;99.90
55213;DHT22;41083;52.932;6.674;2023-03-01T03:36:20;-0.90;99.90
55213;DHT22;41083;52.932;6.674;2023-03-01T03:38:46;-0.90;99.90
55213;DHT22;41083;52.932;6.674;2023-03-01T03:41:12;-0.90;99.90
55213;DHT22;41083;52.932;6.674;2023-03-01T03:43:40;-0.80;99.90
55213;DHT22;41083;52.932;6.674;2023-03-01T03:46:06;-0.80;99.90
55213;DHT22;41083;52.932;6.674;2023-03-01T03:48:38;-0.90;99.90
55213;DHT22;41083;52.932;6.674;2023-03-01T03:51:04;-0.90;99.90
55213;DHT22;41083;52.932;6.674;2023-03-01T03:53:32;-0.90;99.90
55213;DHT22;41083;52.932;6.674;2023-03-01T03:55:58;-0.90;99.90
55213;DHT22;41083;52.932;6.674;2023-03-01T03:58:25;-1.00;99.90
55213;DHT22;41083;52.932;6.674;2023-03-01T04:00:53;-1.00;99.90
55213;DHT22;41083;52.932;6.674;2023-03-01T04:03:22;-0.90;99.90
55213;DHT22;41083;52.932;6.674;2023-03-01T04:05:48;-1.00;99.90
55213;DHT22;41083;52.932;6.674;2023-03-01T04:08:16;-0.90;99.90
55213;DHT22;41083;52.932;6.674;2023-03-01T04:10:45;-1.00;99.90
55213;DHT22;41083;52.932;6.674;2023-03-01T04:13:12;-1.00;99.90
55213;DHT22;41083;52.932;6.674;2023-03-01T04:15:39;-1.00;99.90
55213;DHT22;41083;52.932;6.674;2023-03-01T04:18:05;-1.00;99.90
55213;DHT22;41083;52.932;6.674;2023-03-01T04:20:33;-1.00;99.90
55213;DHT22;41083;52.932;6.674;2023-03-01T04:23:20;-1.00;99.90
55213;DHT22;41083;52.932;6.674;2023-03-01T04:25:53;-1.00;99.90
55213;DHT22;41083;52.932;6.674;2023-03-01T04:30:57;-1.10;99.90
55213;DHT22;41083;52.932;6.674;2023-03-01T04:33:24;-1.10;99.90
55213;DHT22;41083;52.932;6.674;2023-03-01T04:35:50;-1.10;99.90
55213;DHT22;41083;52.932;6.674;2023-03-01T04:38:17;-1.10;99.90
55213;DHT22;41083;52.932;6.674;2023-03-01T04:40:43;-1.20;99.90
55213;DHT22;41083;52.932;6.674;2023-03-01T04:43:10;-1.20;99.90
55213;DHT22;41083;52.932;6.674;2023-03-01T04:45:35;-1.20;99.90
55213;DHT22;41083;52.932;6.674;2023-03-01T04:48:02;-1.20;99.90
55213;DHT22;41083;52.932;6.674;2023-03-01T04:50:28;-1.20;99.90
55213;DHT22;41083;52.932;6.674;2023-03-01T04:52:54;-1.20;99.90
55213;DHT22;41083;52.932;6.674;2023-03-01T04:55:24;-1.20;99.90
55213;DHT22;41083;52.932;6.674;2023-03-01T04:57:51;-1.30;99.90
55213;DHT22;41083;52.932;6.674;2023-03-01T05:00:16;-1.30;99.90
55213;DHT22;41083;52.932;6.674;2023-03-01T05:02:53;-1.20;99.90
55213;DHT22;41083;52.932;6.674;2023-03-01T05:05:35;-1.20;99.90
55213;DHT22;41083;52.932;6.674;2023-03-01T05:08:04;-1.20;99.90
55213;DHT22;41083;52.932;6.674;2023-03-01T05:10:31;-1.10;99.90
55213;DHT22;41083;52.932;6.674;2023-03-01T05:12:58;-1.20;99.90
55213;DHT22;41083;52.932;6.674;2023-03-01T05:15:25;-1.20;99.90
55213;DHT22;41083;52.932;6.674;2023-03-01T05:17:51;-1.20;99.90
55213;DHT22;41083;52.932;6.674;2023-03-01T05:20:17;-1.20;99.90
55213;DHT22;41083;52.932;6.674;2023-03-01T05:22:43;-1.10;99.90
55213;DHT22;41083;52.932;6.674;2023-03-01T05:25:09;-1.20;99.90
55213;DHT22;41083;52.932;6.674;2023-03-01T05:27:35;-1.20;99.90
55213;DHT22;41083;52.932;6.674;2023-03-01T05:30:02;-1.20;99.90
55213;DHT22;41083;52.932;6.674;2023-03-01T05:32:40;-1.20;99.90
55213;DHT22;41083;52.932;6.674;2023-03-01T05:35:05;-1.20;99.90
55213;DHT22;41083;52.932;6.674;2023-03-01T05:37:31;-1.30;99.90
55213;DHT22;41083;52.932;6.674;2023-03-01T05:39:57;-1.30;99.90
55213;DHT22;41083;52.932;6.674;2023-03-01T05:42:22;-1.30;99.90
55213;DHT22;41083;52.932;6.674;2023-03-01T05:44:48;-1.30;99.90
55213;DHT22;41083;52.932;6.674;2023-03-01T05:47:13;-1.30;99.90
55213;DHT22;41083;52.932;6.674;2023-03-01T05:49:39;-1.40;99.90
55213;DHT22;41083;52.932;6.674;2023-03-01T05:52:05;-1.40;99.90
55213;DHT22;41083;52.932;6.674;2023-03-01T05:54:30;-1.40;99.90
55213;DHT22;41083;52.932;6.674;2023-03-01T05:56:56;-1.40;99.90
55213;DHT22;41083;52.932;6.674;2023-03-01T05:59:21;-1.40;99.90
55213;DHT22;41083;52.932;6.674;2023-03-01T06:01:47;-1.30;99.90
55213;DHT22;41083;52.932;6.674;2023-03-01T06:04:13;-1.30;99.90
55213;DHT22;41083;52.932;6.674;2023-03-01T06:06:38;-1.30;99.90
55213;DHT22;41083;52.932;6.674;2023-03-01T06:09:05;-1.40;99.90
55213;DHT22;41083;52.932;6.674;2023-03-01T06:11:34;-1.40;99.90
55213;DHT22;41083;52.932;6.674;2023-03-01T06:14:00;-1.50;99.90
55213;DHT22;41083;52.932;6.674;2023-03-01T06:16:25;-1.50;99.90
55213;DHT22;41083;52.932;6.674;2023-03-01T06:18:51;-1.50;99.90
55213;DHT22;41083;52.932;6.674;2023-03-01T06:21:17;-1.50;99.90
55213;DHT22;41083;52.932;6.674;2023-03-01T06:23:42;-1.50;99.90
55213;DHT22;41083;52.932;6.674;2023-03-01T06:26:08;-1.60;99.90
55213;DHT22;41083;52.932;6.674;2023-03-01T06:28:35;-1.50;99.90
55213;DHT22;41083;52.932;6.674;2023-03-01T06:31:01;-1.60;99.90
55213;DHT22;41083;52.932;6.674;2023-03-01T06:33:26;-1.60;99.90
55213;DHT22;41083;52.932;6.674;2023-03-01T06:35:54;-1.60;99.90
55213;DHT22;41083;52.932;6.674;2023-03-01T06:38:22;-1.60;99.90
55213;DHT22;41083;52.932;6.674;2023-03-01T06:40:55;-1.50;99.90
55213;DHT22;41083;52.932;6.674;2023-03-01T06:43:22;-1.60;99.90
55213;DHT22;41083;52.932;6.674;2023-03-01T06:45:48;-1.50;99.90
55213;DHT22;41083;52.932;6.674;2023-03-01T06:48:14;-1.50;99.90
55213;DHT22;41083;52.932;6.674;2023-03-01T06:50:40;-1.50;99.90
55213;DHT22;41083;52.932;6.674;2023-03-01T06:53:05;-1.50;99.90
55213;DHT22;41083;52.932;6.674;2023-03-01T06:55:31;-1.50;99.90
55213;DHT22;41083;52.932;6.674;2023-03-01T06:57:58;-1.50;99.90
55213;DHT22;41083;52.932;6.674;2023-03-01T07:00:25;-1.40;99.90
55213;DHT22;41083;52.932;6.674;2023-03-01T07:02:51;-1.40;99.90
55213;DHT22;41083;52.932;6.674;2023-03-01T07:05:16;-1.40;99.90
55213;DHT22;41083;52.932;6.674;2023-03-01T07:07:42;-1.40;99.90
55213;DHT22;41083;52.932;6.674;2023-03-01T07:10:08;-1.30;99.90
55213;DHT22;41083;52.932;6.674;2023-03-01T07:12:34;-1.30;99.90
55213;DHT22;41083;52.932;6.674;2023-03-01T07:15:00;-1.20;99.90
55213;DHT22;41083;52.932;6.674;2023-03-01T07:17:25;-1.20;99.90
55213;DHT22;41083;52.932;6.674;2023-03-01T07:19:51;-1.20;99.90
55213;DHT22;41083;52.932;6.674;2023-03-01T07:22:17;-1.10;99.90
55213;DHT22;41083;52.932;6.674;2023-03-01T07:24:43;-1.10;99.90
55213;DHT22;41083;52.932;6.674;2023-03-01T07:27:09;-1.10;99.90
55213;DHT22;41083;52.932;6.674;2023-03-01T07:29:35;-1.00;99.90
55213;DHT22;41083;52.932;6.674;2023-03-01T07:32:04;-1.00;99.90
55213;DHT22;41083;52.932;6.674;2023-03-01T07:34:30;-1.00;99.90
55213;DHT22;41083;52.932;6.674;2023-03-01T07:36:56;-0.90;99.90
55213;DHT22;41083;52.932;6.674;2023-03-01T07:39:21;-0.90;99.90
55213;DHT22;41083;52.932;6.674;2023-03-01T07:41:49;-0.90;99.90
55213;DHT22;41083;52.932;6.674;2023-03-01T07:44:14;-0.80;99.90
55213;DHT22;41083;52.932;6.674;2023-03-01T07:46:41;-0.80;99.90
55213;DHT22;41083;52.932;6.674;2023-03-01T07:49:07;-0.80;99.90
55213;DHT22;41083;52.932;6.674;2023-03-01T07:51:32;-0.70;99.90
55213;DHT22;41083;52.932;6.674;2023-03-01T07:53:58;-0.60;99.90
55213;DHT22;41083;52.932;6.674;2023-03-01T07:56:24;-0.60;99.90
55213;DHT22;41083;52.932;6.674;2023-03-01T07:58:49;-0.50;99.90
55213;DHT22;41083;52.932;6.674;2023-03-01T08:01:17;-0.40;99.90
55213;DHT22;41083;52.932;6.674;2023-03-01T08:03:43;-0.30;99.90
55213;DHT22;41083;52.932;6.674;2023-03-01T08:06:10;-0.30;99.90
55213;DHT22;41083;52.932;6.674;2023-03-01T08:08:36;-0.20;99.90
55213;DHT22;41083;52.932;6.674;2023-03-01T08:11:04;-0.20;99.90
55213;DHT22;41083;52.932;6.674;2023-03-01T08:13:30;-0.10;99.90
55213;DHT22;41083;52.932;6.674;2023-03-01T08:16:04;-0.10;99.90
55213;DHT22;41083;52.932;6.674;2023-03-01T08:18:30;0.00;99.90
55213;DHT22;41083;52.932;6.674;2023-03-01T08:21:00;0.00;99.90
55213;DHT22;41083;52.932;6.674;2023-03-01T08:23:26;0.10;99.90
55213;DHT22;41083;52.932;6.674;2023-03-01T08:25:52;0.10;99.90
55213;DHT22;41083;52.932;6.674;2023-03-01T08:28:18;0.20;99.90
55213;DHT22;41083;52.932;6.674;2023-03-01T08:30:43;0.20;99.90
55213;DHT22;41083;52.932;6.674;2023-03-01T08:33:09;0.30;99.90
55213;DHT22;41083;52.932;6.674;2023-03-01T08:35:34;0.30;99.90
55213;DHT22;41083;52.932;6.674;2023-03-01T08:38:00;0.40;99.90
55213;DHT22;41083;52.932;6.674;2023-03-01T08:40:26;0.50;99.90
55213;DHT22;41083;52.932;6.674;2023-03-01T08:42:51;0.50;99.90
55213;DHT22;41083;52.932;6.674;2023-03-01T08:45:17;0.50;99.90
55213;DHT22;41083;52.932;6.674;2023-03-01T08:47:44;0.60;99.90
55213;DHT22;41083;52.932;6.674;2023-03-01T08:50:10;0.70;99.90
55213;DHT22;41083;52.932;6.674;2023-03-01T08:52:36;0.70;99.90
55213;DHT22;41083;52.932;6.674;2023-03-01T08:55:02;0.80;99.90
55213;DHT22;41083;52.932;6.674;2023-03-01T08:57:27;0.80;99.90
55213;DHT22;41083;52.932;6.674;2023-03-01T08:59:53;0.90;99.90
55213;DHT22;41083;52.932;6.674;2023-03-01T09:02:21;0.90;99.90
55213;DHT22;41083;52.932;6.674;2023-03-01T09:04:47;1.00;99.90
55213;DHT22;41083;52.932;6.674;2023-03-01T09:07:13;1.00;99.90
55213;DHT22;41083;52.932;6.674;2023-03-01T09:09:39;1.10;99.90
55213;DHT22;41083;52.932;6.674;2023-03-01T09:12:05;1.10;99.90
55213;DHT22;41083;52.932;6.674;2023-03-01T09:14:31;1.10;99.90
55213;DHT22;41083;52.932;6.674;2023-03-01T09:16:56;1.20;99.90
55213;DHT22;41083;52.932;6.674;2023-03-01T09:19:22;1.20;99.90
55213;DHT22;41083;52.932;6.674;2023-03-01T09:21:48;1.20;99.90
55213;DHT22;41083;52.932;6.674;2023-03-01T09:24:22;1.30;99.90
55213;DHT22;41083;52.932;6.674;2023-03-01T09:26:48;1.40;99.90
55213;DHT22;41083;52.932;6.674;2023-03-01T09:29:15;1.40;99.90
55213;DHT22;41083;52.932;6.674;2023-03-01T09:31:42;1.40;99.90
55213;DHT22;41083;52.932;6.674;2023-03-01T09:34:08;1.50;99.90
55213;DHT22;41083;52.932;6.674;2023-03-01T09:36:35;1.60;99.90
55213;DHT22;41083;52.932;6.674;2023-03-01T09:39:01;1.60;99.90
55213;DHT22;41083;52.932;6.674;2023-03-01T09:41:47;1.60;99.90
55213;DHT22;41083;52.932;6.674;2023-03-01T09:46:46;1.70;99.90
55213;DHT22;41083;52.932;6.674;2023-03-01T09:49:35;1.70;99.90
55213;DHT22;41083;52.932;6.674;2023-03-01T09:52:13;1.80;99.90
55213;DHT22;41083;52.932;6.674;2023-03-01T09:54:45;1.80;99.90
55213;DHT22;41083;52.932;6.674;2023-03-01T09:57:36;1.90;99.90
55213;DHT22;41083;52.932;6.674;2023-03-01T10:00:23;2.00;99.90
55213;DHT22;41083;52.932;6.674;2023-03-01T10:06:04;2.10;99.90
55213;DHT22;41083;52.932;6.674;2023-03-01T10:08:38;2.10;99.90
55213;DHT22;41083;52.932;6.674;2023-03-01T10:11:19;2.20;99.90
55213;DHT22;41083;52.932;6.674;2023-03-01T10:14:15;2.20;99.90
55213;DHT22;41083;52.932;6.674;2023-03-01T10:16:54;2.30;99.90
55213;DHT22;41083;52.932;6.674;2023-03-01T10:19:29;2.30;99.90
55213;DHT22;41083;52.932;6.674;2023-03-01T10:22:01;2.30;99.90
55213;DHT22;41083;52.932;6.674;2023-03-01T10:24:32;2.30;99.90
55213;DHT22;41083;52.932;6.674;2023-03-01T10:27:29;2.40;99.90
55213;DHT22;41083;52.932;6.674;2023-03-01T10:30:13;2.50;99.90
55213;DHT22;41083;52.932;6.674;2023-03-01T10:32:39;2.50;99.90
55213;DHT22;41083;52.932;6.674;2023-03-01T10:35:24;2.60;99.90
55213;DHT22;41083;52.932;6.674;2023-03-01T10:38:11;2.60;99.90
55213;DHT22;41083;52.932;6.674;2023-03-01T10:40:55;2.70;99.90
55213;DHT22;41083;52.932;6.674;2023-03-01T10:43:23;2.70;99.90
55213;DHT22;41083;52.932;6.674;2023-03-01T10:45:50;2.80;99.90
55213;DHT22;41083;52.932;6.674;2023-03-01T10:48:19;2.80;99.90
55213;DHT22;41083;52.932;6.674;2023-03-01T10:50:51;2.90;99.90
55213;DHT22;41083;52.932;6.674;2023-03-01T10:53:40;3.00;99.90
55213;DHT22;41083;52.932;6.674;2023-03-01T10:56:07;3.10;99.90
55213;DHT22;41083;52.932;6.674;2023-03-01T10:58:35;3.20;99.90
55213;DHT22;41083;52.932;6.674;2023-03-01T11:01:44;3.20;99.90
55213;DHT22;41083;52.932;6.674;2023-03-01T11:06:33;3.40;99.90
55213;DHT22;41083;52.932;6.674;2023-03-01T11:09:14;3.40;99.90
55213;DHT22;41083;52.932;6.674;2023-03-01T11:11:41;3.50;99.90
55213;DHT22;41083;52.932;6.674;2023-03-01T11:14:24;3.50;99.90
55213;DHT22;41083;52.932;6.674;2023-03-01T11:17:03;3.70;99.90
55213;DHT22;41083;52.932;6.674;2023-03-01T11:19:31;3.70;99.90
55213;DHT22;41083;52.932;6.674;2023-03-01T11:27:14;3.80;99.90
55213;DHT22;41083;52.932;6.674;2023-03-01T11:29:42;3.90;99.90
55213;DHT22;41083;52.932;6.674;2023-03-01T11:32:13;3.80;99.90
55213;DHT22;41083;52.932;6.674;2023-03-01T11:34:47;3.90;99.90
55213;DHT22;41083;52.932;6.674;2023-03-01T11:37:40;3.90;99.90
55213;DHT22;41083;52.932;6.674;2023-03-01T11:40:23;3.90;99.90
55213;DHT22;41083;52.932;6.674;2023-03-01T11:43:15;3.90;99.90
55213;DHT22;41083;52.932;6.674;2023-03-01T11:51:53;4.00;99.90
55213;DHT22;41083;52.932;6.674;2023-03-01T11:54:04;4.00;99.90
55213;DHT22;41083;52.932;6.674;2023-03-01T11:56:43;4.10;99.90
55213;DHT22;41083;52.932;6.674;2023-03-01T12:07:37;4.30;99.90
55213;DHT22;41083;52.932;6.674;2023-03-01T12:18:43;4.30;99.90
55213;DHT22;41083;52.932;6.674;2023-03-01T12:29:18;4.40;99.90
55213;DHT22;41083;52.932;6.674;2023-03-01T12:37:22;4.40;99.90
55213;DHT22;41083;52.932;6.674;2023-03-01T12:42:36;4.50;99.90
55213;DHT22;41083;52.932;6.674;2023-03-01T12:47:53;4.60;99.90
55213;DHT22;41083;52.932;6.674;2023-03-01T12:50:26;4.60;99.90
55213;DHT22;41083;52.932;6.674;2023-03-01T12:52:56;4.60;99.90
55213;DHT22;41083;52.932;6.674;2023-03-01T12:55:31;4.60;99.90
55213;DHT22;41083;52.932;6.674;2023-03-01T12:58:04;4.70;99.90
55213;DHT22;41083;52.932;6.674;2023-03-01T13:00:39;4.70;99.90
55213;DHT22;41083;52.932;6.674;2023-03-01T13:03:42;4.70;99.90
55213;DHT22;41083;52.932;6.674;2023-03-01T13:06:32;4.80;99.90
55213;DHT22;41083;52.932;6.674;2023-03-01T13:09:41;4.80;99.90
55213;DHT22;41083;52.932;6.674;2023-03-01T13:15:26;4.80;99.90
55213;DHT22;41083;52.932;6.674;2023-03-01T13:20:46;4.90;99.90
55213;DHT22;41083;52.932;6.674;2023-03-01T13:28:46;5.00;99.90
55213;DHT22;41083;52.932;6.674;2023-03-01T13:33:46;5.10;99.90
55213;DHT22;41083;52.932;6.674;2023-03-01T13:39:04;5.10;99.90
55213;DHT22;41083;52.932;6.674;2023-03-01T13:47:01;5.10;99.90
55213;DHT22;41083;52.932;6.674;2023-03-01T13:49:35;5.10;99.90
55213;DHT22;41083;52.932;6.674;2023-03-01T13:52:06;5.10;99.90
55213;DHT22;41083;52.932;6.674;2023-03-01T13:54:39;5.10;99.90
55213;DHT22;41083;52.932;6.674;2023-03-01T13:57:05;5.10;99.90
55213;DHT22;41083;52.932;6.674;2023-03-01T13:59:31;5.10;99.90
55213;DHT22;41083;52.932;6.674;2023-03-01T14:01:59;5.10;99.90
55213;DHT22;41083;52.932;6.674;2023-03-01T14:04:28;5.10;99.90
55213;DHT22;41083;52.932;6.674;2023-03-01T14:07:20;5.10;99.90
55213;DHT22;41083;52.932;6.674;2023-03-01T14:09:53;5.10;99.90
55213;DHT22;41083;52.932;6.674;2023-03-01T14:12:46;5.10;99.90
55213;DHT22;41083;52.932;6.674;2023-03-01T14:15:22;5.10;99.90
55213;DHT22;41083;52.932;6.674;2023-03-01T14:18:29;5.10;99.90
55213;DHT22;41083;52.932;6.674;2023-03-01T14:21:01;5.10;99.90
55213;DHT22;41083;52.932;6.674;2023-03-01T14:23:32;5.10;99.90
55213;DHT22;41083;52.932;6.674;2023-03-01T14:26:00;5.20;99.90
55213;DHT22;41083;52.932;6.674;2023-03-01T14:28:28;5.20;99.90
55213;DHT22;41083;52.932;6.674;2023-03-01T14:30:57;5.20;99.90
55213;DHT22;41083;52.932;6.674;2023-03-01T14:33:35;5.20;99.90
55213;DHT22;41083;52.932;6.674;2023-03-01T14:36:11;5.20;99.90
55213;DHT22;41083;52.932;6.674;2023-03-01T14:38:45;5.20;99.90
55213;DHT22;41083;52.932;6.674;2023-03-01T14:43:44;5.20;99.90
55213;DHT22;41083;52.932;6.674;2023-03-01T14:46:34;5.20;99.90
55213;DHT22;41083;52.932;6.674;2023-03-01T14:49:23;5.20;99.90
55213;DHT22;41083;52.932;6.674;2023-03-01T14:52:20;5.30;99.90
55213;DHT22;41083;52.932;6.674;2023-03-01T14:54:49;5.20;99.90
55213;DHT22;41083;52.932;6.674;2023-03-01T14:57:21;5.20;99.90
55213;DHT22;41083;52.932;6.674;2023-03-01T14:59:48;5.30;99.90
55213;DHT22;41083;52.932;6.674;2023-03-01T15:02:20;5.30;99.90
55213;DHT22;41083;52.932;6.674;2023-03-01T15:04:50;5.40;99.90
55213;DHT22;41083;52.932;6.674;2023-03-01T15:07:17;5.50;99.90
55213;DHT22;41083;52.932;6.674;2023-03-01T15:09:44;5.50;99.90
55213;DHT22;41083;52.932;6.674;2023-03-01T15:14:57;5.40;99.90
55213;DHT22;41083;52.932;6.674;2023-03-01T15:17:34;5.40;99.90
55213;DHT22;41083;52.932;6.674;2023-03-01T15:20:03;5.40;99.90
55213;DHT22;41083;52.932;6.674;2023-03-01T15:22:30;5.40;99.90
55213;DHT22;41083;52.932;6.674;2023-03-01T15:24:56;5.40;99.90
55213;DHT22;41083;52.932;6.674;2023-03-01T15:27:25;5.40;99.90
55213;DHT22;41083;52.932;6.674;2023-03-01T15:32:32;5.40;99.90
55213;DHT22;41083;52.932;6.674;2023-03-01T15:34:59;5.40;99.90
55213;DHT22;41083;52.932;6.674;2023-03-01T15:37:46;5.40;99.90
55213;DHT22;41083;52.932;6.674;2023-03-01T15:42:57;5.50;99.90
55213;DHT22;41083;52.932;6.674;2023-03-01T15:45:24;5.50;99.90
55213;DHT22;41083;52.932;6.674;2023-03-01T15:48:03;5.50;99.90
55213;DHT22;41083;52.932;6.674;2023-03-01T15:52:55;5.40;99.90
55213;DHT22;41083;52.932;6.674;2023-03-01T15:55:29;5.50;99.90
55213;DHT22;41083;52.932;6.674;2023-03-01T15:58:00;5.50;99.90
55213;DHT22;41083;52.932;6.674;2023-03-01T16:00:26;5.50;99.90
55213;DHT22;41083;52.932;6.674;2023-03-01T16:02:52;5.40;99.90
55213;DHT22;41083;52.932;6.674;2023-03-01T16:05:33;5.50;99.90
55213;DHT22;41083;52.932;6.674;2023-03-01T16:08:00;5.50;99.90
55213;DHT22;41083;52.932;6.674;2023-03-01T16:10:26;5.50;99.90
55213;DHT22;41083;52.932;6.674;2023-03-01T16:12:52;5.50;99.90
55213;DHT22;41083;52.932;6.674;2023-03-01T16:17:48;5.50;99.90
55213;DHT22;41083;52.932;6.674;2023-03-01T16:20:15;5.50;99.90
55213;DHT22;41083;52.932;6.674;2023-03-01T16:22:44;5.50;99.90
55213;DHT22;41083;52.932;6.674;2023-03-01T16:25:15;5.50;99.90
55213;DHT22;41083;52.932;6.674;2023-03-01T16:27:48;5.50;99.90
55213;DHT22;41083;52.932;6.674;2023-03-01T16:30:15;5.50;99.90
55213;DHT22;41083;52.932;6.674;2023-03-01T16:32:43;5.40;99.90
55213;DHT22;41083;52.932;6.674;2023-03-01T16:35:10;5.50;99.90
55213;DHT22;41083;52.932;6.674;2023-03-01T16:37:37;5.50;99.90
55213;DHT22;41083;52.932;6.674;2023-03-01T16:40:04;5.40;99.90
55213;DHT22;41083;52.932;6.674;2023-03-01T16:42:35;5.40;99.90
55213;DHT22;41083;52.932;6.674;2023-03-01T16:45:02;5.30;99.90
55213;DHT22;41083;52.932;6.674;2023-03-01T16:47:28;5.30;99.90
55213;DHT22;41083;52.932;6.674;2023-03-01T16:49:54;5.30;99.90
55213;DHT22;41083;52.932;6.674;2023-03-01T16:52:21;5.30;99.90
55213;DHT22;41083;52.932;6.674;2023-03-01T16:54:46;5.20;99.90
55213;DHT22;41083;52.932;6.674;2023-03-01T16:57:12;5.20;99.90
55213;DHT22;41083;52.932;6.674;2023-03-01T16:59:38;5.10;99.90
55213;DHT22;41083;52.932;6.674;2023-03-01T17:02:04;5.10;99.90
55213;DHT22;41083;52.932;6.674;2023-03-01T17:04:31;5.10;99.90
55213;DHT22;41083;52.932;6.674;2023-03-01T17:06:57;5.10;99.90
55213;DHT22;41083;52.932;6.674;2023-03-01T17:09:23;5.10;99.90
55213;DHT22;41083;52.932;6.674;2023-03-01T17:11:49;5.00;99.90
55213;DHT22;41083;52.932;6.674;2023-03-01T17:14:15;5.00;99.90
55213;DHT22;41083;52.932;6.674;2023-03-01T17:16:44;5.00;99.90
55213;DHT22;41083;52.932;6.674;2023-03-01T17:19:11;4.90;99.90
55213;DHT22;41083;52.932;6.674;2023-03-01T17:21:38;4.90;99.90
55213;DHT22;41083;52.932;6.674;2023-03-01T17:24:04;4.90;99.90
55213;DHT22;41083;52.932;6.674;2023-03-01T17:26:29;4.80;99.90
55213;DHT22;41083;52.932;6.674;2023-03-01T17:28:55;4.80;99.90
55213;DHT22;41083;52.932;6.674;2023-03-01T17:31:22;4.70;99.90
55213;DHT22;41083;52.932;6.674;2023-03-01T17:33:48;4.70;99.90
55213;DHT22;41083;52.932;6.674;2023-03-01T17:36:15;4.70;99.90
55213;DHT22;41083;52.932;6.674;2023-03-01T17:38:41;4.70;99.90
55213;DHT22;41083;52.932;6.674;2023-03-01T17:41:06;4.60;99.90
55213;DHT22;41083;52.932;6.674;2023-03-01T17:43:32;4.60;99.90
55213;DHT22;41083;52.932;6.674;2023-03-01T17:45:59;4.60;99.90